Comfrey, Minnesota
Current Conditions -  °F | °C
As of 6:13 AM on Saturday 25 Oct 2014 (Local Time) from KMWM Reporting Station
Clear Clear  
Wind Chill: 54°   Ceiling: Unl
Heat Index: 54°   Visibility: 10mi
Dew Point: 36°   Wind: 9mph
Humidity: 51%   Direction: 320°NW
Pressure: 30.06"   Gusts: NA
Location:  44.11°N, 94.9°W
Report Text: KMWM 251113Z AUTO 32008KT 10SM CLR 12/02 A3006 RMK AO2
Loading
Personal Weather Stations






























Interactive Weather Map
Tropical Storm Tracking
New forecast layout! Learn more

10-Day Weather Forecast

Advertisements
Track Severe Weather on mobile